Meteo Giornale » Osservazioni meteo Italia » Pescara

ore: 07:20 - Osservazioni Meteo Pescara
Lat. 42° 26' N Lon. 14° 12' E Alt. 10 metri s.l.m.

sereno

20 °C

Sereno

Temp. 24 Ore

18 °C

32 °C

Sud/Sud-Ovest

9.3 Km/h

Dew point 15 °C

Umidità 72 %

Visibilità  10 Km

Il sole sorge alle ore 06:29

Il sole tramonta alle ore 19:36

Data e Ora Cielo e Fenomeni T °C DP °C Um. % Pres. hPa Vis. km Vento km/h
Oggi h: 07:20 sereno Sereno 20 15 72 1017 10 S/SO 9.3
Oggi h: 06:50 sereno Sereno 18 15 82 1017 10 SO 11.1
Oggi h: 06:20 sereno Sereno 19 15 77 1017 10 SO 7.4
Oggi h: 05:50 sereno Sereno 19 16 82 1017 10 S 7.4
Oggi h: 05:20 sereno Sereno 19 16 82 1017 10 SO 9.3
Oggi h: 04:50 sereno Sereno 19 16 82 1017 10 SO 7.4
Oggi h: 04:20 sereno Sereno 19 16 82 1017 10 S/SO 11.1
Oggi h: 03:50 sereno Sereno 20 16 77 1017 10 S/SO 7.4
Oggi h: 03:20 sereno Sereno 19 17 88 1017 10 S/SO 11.1
Oggi h: 02:50 sereno Sereno 20 17 82 1017 10 N 3.7
Oggi h: 02:20 sereno Sereno 20 17 82 1017 10 S/SO 9.3
Oggi h: 01:50 sereno Sereno 20 18 88 1017 10 S/SO 7.4
Oggi h: 01:20 sereno Sereno 21 18 82 1017 10 SO 7.4
Oggi h: 00:50 sereno Sereno 21 18 82 1017 10 SO 7.4
Oggi h: 00:20 sereno Sereno 21 18 82 1017 10 SO 7.4
Ieri h: 23:50 sereno Sereno 22 18 78 1017 10 SO 11.1
Ieri h: 23:20 sereno Sereno 23 19 78 1017 10 N 5.5
Ieri h: 22:50 sereno Sereno 24 19 73 1017 10 O/SO 7.4
Ieri h: 22:20 sereno Sereno 23 20 83 1017 10 SO 11.1
Ieri h: 21:50 sereno Sereno 24 20 78 1017 10 S/SO 7.4
Ieri h: 21:20 sereno Sereno 25 21 78 1017 10 N 1.8
Ieri h: 20:50 sereno Sereno 26 22 78 1017 10 N 3.7
Ieri h: 20:20 coperto_pioggia Pioggia 27 22 74 1016 10 N 1.8
Ieri h: 19:50 sereno Sereno 28 22 69 1016 10 N 5.5
Ieri h: 19:20 sereno Sereno 28 21 65 1016 10 E/NE 7.4
Ieri h: 18:50 sereno Sereno 30 21 58 1016 10 E/NE 9.3
Ieri h: 18:20 sereno Sereno 30 19 51 1016 10 E/NE 9.3
Ieri h: 17:50 sereno Sereno 31 19 48 1016 10 E/NE 14.8
Ieri h: 17:20 sereno Sereno 31 21 55 1016 10 E/NE 11.1
Ieri h: 16:50 sereno Sereno 31 20 52 1016 10 E 14.8
Ieri h: 16:20 sereno Sereno 31 20 52 1016 10 E 14.8
Ieri h: 15:50 sereno Sereno 31 20 52 1016 10 E/NE 16.7
Ieri h: 15:20 sereno Sereno 31 19 48 1016 10 E 16.7
Ieri h: 14:50 sereno Sereno 31 18 45 1016 10 E/NE 16.7
Ieri h: 14:20 sereno Sereno 32 17 40 1017 10 E/NE 14.8
Ieri h: 13:50 sereno Sereno 32 16 38 1017 10 E/NE 13
Ieri h: 13:20 sereno Sereno 31 17 43 1017 10 NE 16.7
Ieri h: 12:50 sereno Sereno 31 19 48 1017 10 NE 14.8
Ieri h: 12:20 sereno Sereno 31 18 45 1017 10 NE 14.8
Ieri h: 11:50 sereno Sereno 31 17 43 1017 10 NE 13
Ieri h: 11:20 sereno Sereno 31 17 43 1017 10 N/NE 14.8
Ieri h: 10:50 sereno Sereno 31 17 43 1017 10 NE 11.1
Ieri h: 10:20 sereno Sereno 31 19 48 1017 10 NE 11.1
Ieri h: 09:50 sereno Sereno 31 16 40 1017 10 N 1.8
Ieri h: 09:20 sereno Sereno 29 16 45 1017 10 N 3.7
Ieri h: 08:50 sereno Sereno 27 17 54 1016 10 N 3.7
Ieri h: 08:20 sereno Sereno 25 18 65 1016 10 N 5.5
Ieri h: 07:50 sereno Sereno 22 18 78 1016 10 N 5.5